Alta Vista, Iowa
Current Conditions -  °F | °C
As of 11:35 PM on Friday 31 Oct 2014 (Local Time) from KCCY Reporting Station
Clear Clear  
Wind Chill: 25°   Ceiling: Unl
Heat Index: 25°   Visibility: 10mi
Dew Point: 18°   Wind: 0mph
Humidity: 74%   Direction: NA
Pressure: 30.48"   Gusts: NA
Location:  43.2°N, 92.42°W
Report Text: KCCY 010435Z AUTO 00000KT 10SM CLR M04/M08 A3048 RMK AO2
Loading
Personal Weather Stations






























Interactive Weather Map
Tropical Storm Tracking
New forecast layout! Learn more

10-Day Weather Forecast

Advertisements
Track Severe Weather on mobile